首页
METAR-TAF:

METAR-TAF

机场 :

Sioux Gateway Airport (Col. Bud Day Field)

蘇城, 艾奥瓦州, 美国

纬度: 42-24-09N, 经度: 096-23-04W, 海拔: 335米

当前天气观测

该预报发布于56分钟前的23:52 UTC
风速12节,风向
温度 21°C
湿度 56%
气压 1006 hPa
能見度: 16.1公里
多云层高于4200英尺

METAR: KSUX 062352Z 19012KT 10SM BKN042 21/12 A2971 RMK AO2 SLP058 T02110117 10217 20167 56008

时间: 19:48 (00:48 UTC)

预报

该预报发布于1小时和13分钟前的23:35 UTC
预报有效从07日的 00点(UTC)到 07日的 24点(UTC)
风速9节,风向
能見度: 10公里
散云层高于4500英尺
从 07日的 0600点(UTC)
风速6节,风向
能見度: 1.6公里
散云层高于300英尺
多云层高于500英尺
轻雾
从 07日的 1500点(UTC)
风速12节,风向西北,有时为20节阵风
能見度: 10公里
散云层高于20000英尺

TAF: KSUX 062335Z 0700/0724 18009KT P6SM SCT045 FM070600 10006KT 1SM BR SCT003 BKN005 FM071500 31012G20KT P6SM SCT200

超过4000个机场的气象观测和天气预报(METAR&TAF报告)。

可查询的气象台以黄色和红色小点在地图上表示。

将鼠标移到小点上方,可查看气象台名称。

然后点击查看天气观测和预报。

如需切换地图:点击带黑十字的绿色按钮放大地图;点击带横线的绿色按钮缩小地图;或者点击绿色箭头查看邻近地区的地图。


METAR-TAF: